Time;durP1;ratioP1;P1;durP2;ratioP2;P2;SDS_P1;SDS_P2;PMS_P1;PMS_P2;Temp;Humidity;BMP_temperature;BMP_pressure;BME280_temperature;BME280_humidity;BME280_pressure;Samples;Min_cycle;Max_cycle;Signal;HPM_P1;HPM_P2
2022/08/25 00:01:44;;;;;;;8.38;2.97;;;;;;;;;;4974351;28;20166;-74
2022/08/25 00:04:12;;;;;;;6.20;2.85;;;;;;;;;;4973970;28;20038;-74
2022/08/25 00:06:40;;;;;;;7.85;3.90;;;;;;;;;;4973900;28;20022;-73
2022/08/25 00:09:07;;;;;;;8.70;3.20;;;;;;;;;;4974386;28;20565;-75
2022/08/25 00:11:34;;;;;;;6.80;3.10;;;;;;;;;;4974423;28;20706;-74
2022/08/25 00:14:04;;;;;;;5.47;3.33;;;;;;;;;;4974123;28;20035;-74
2022/08/25 00:16:31;;;;;;;6.80;3.08;;;;;;;;;;4973949;28;20090;-74
2022/08/25 00:19:00;;;;;;;4.70;3.20;;;;;;;;;;4973910;28;20043;-75
2022/08/25 00:21:27;;;;;;;6.88;3.05;;;;;;;;;;4973964;28;20180;-74
2022/08/25 00:23:53;;;;;;;6.15;3.20;;;;;;;;;;4973747;28;20098;-74
2022/08/25 00:26:19;;;;;;;6.30;3.35;;;;;;;;;;4956243;28;20389;-74
2022/08/25 00:28:46;;;;;;;6.82;3.10;;;;;;;;;;4973871;28;20092;-74
2022/08/25 00:31:15;;;;;;;4.72;3.13;;;;;;;;;;4973785;28;20030;-73
2022/08/25 00:33:43;;;;;;;5.97;2.80;;;;;;;;;;4973782;28;20031;-74
2022/08/25 00:36:11;;;;;;;4.93;2.88;;;;;;;;;;4973974;28;20031;-72
2022/08/25 00:38:39;;;;;;;5.53;3.50;;;;;;;;;;4973970;28;20042;-72
2022/08/25 00:41:05;;;;;;;5.45;2.67;;;;;;;;;;4973624;28;20033;-73
2022/08/25 00:43:55;;;;;;;4.97;2.72;;;;;;;;;;4973501;28;20057;-74
2022/08/25 00:46:31;;;;;;;6.05;2.35;;;;;;;;;;4973794;28;20097;-73
2022/08/25 00:49:08;;;;;;;4.63;2.15;;;;;;;;;;4973656;28;20497;-74
2022/08/25 00:51:43;;;;;;;5.20;2.40;;;;;;;;;;4973825;28;20417;-74
2022/08/25 00:54:18;;;;;;;3.95;2.28;;;;;;;;;;4973402;28;20465;-73
2022/08/25 00:56:44;;;;;;;3.13;2.08;;;;;;;;;;4952448;28;20074;-74
2022/08/25 00:59:11;;;;;;;6.85;2.50;;;;;;;;;;4953554;29;20055;-75
2022/08/25 01:01:37;;;;;;;3.95;2.08;;;;;;;;;;4953667;29;20035;-74
2022/08/25 01:04:03;;;;;;;5.10;1.90;;;;;;;;;;4935736;29;20491;-74
2022/08/25 01:06:31;;;;;;;4.93;2.17;;;;;;;;;;4953588;29;20067;-73
2022/08/25 01:08:57;;;;;;;4.20;2.33;;;;;;;;;;4953459;29;20027;-73
2022/08/25 01:11:23;;;;;;;4.07;2.47;;;;;;;;;;4953496;29;20126;-73
2022/08/25 01:13:52;;;;;;;5.47;2.35;;;;;;;;;;4952563;28;20114;-72
2022/08/25 01:16:19;;;;;;;4.72;2.30;;;;;;;;;;4952673;28;20120;-74
2022/08/25 01:18:49;;;;;;;3.75;2.03;;;;;;;;;;4952382;29;20054;-75
2022/08/25 01:21:18;;;;;;;6.05;2.42;;;;;;;;;;4953056;29;20054;-74
2022/08/25 01:23:45;;;;;;;4.78;1.98;;;;;;;;;;4953264;28;20027;-73
2022/08/25 01:26:15;;;;;;;5.63;2.20;;;;;;;;;;4953313;29;20062;-74
2022/08/25 01:29:19;;;;;;;5.78;2.20;;;;;;;;;;4950332;29;20050;-73
2022/08/25 01:31:29;;;;;;;6.65;2.58;;;;;;;;;;4952946;29;20046;-74
2022/08/25 01:33:57;;;;;;;4.88;2.60;;;;;;;;;;4953214;29;20102;-74
2022/08/25 01:36:25;;;;;;;6.82;2.83;;;;;;;;;;4953227;29;20039;-74
2022/08/25 01:38:51;;;;;;;4.10;2.50;;;;;;;;;;4951592;29;20019;-73
2022/08/25 01:41:44;;;;;;;5.32;2.30;;;;;;;;;;4952141;29;20035;-73
2022/08/25 01:44:10;;;;;;;3.42;2.33;;;;;;;;;;4953480;29;20035;-73
2022/08/25 01:46:36;;;;;;;3.40;2.30;;;;;;;;;;4953653;29;20020;-73
2022/08/25 01:49:03;;;;;;;5.93;2.83;;;;;;;;;;4953635;29;20039;-73
2022/08/25 01:51:37;;;;;;;4.43;2.63;;;;;;;;;;4953204;29;20023;-73
2022/08/25 01:54:03;;;;;;;4.97;2.17;;;;;;;;;;4953306;29;20110;-73
2022/08/25 01:56:30;;;;;;;3.25;2.08;;;;;;;;;;4953355;29;20031;-73
2022/08/25 01:58:56;;;;;;;6.82;2.58;;;;;;;;;;4952951;29;20498;-73
2022/08/25 02:01:23;;;;;;;4.32;2.78;;;;;;;;;;4953072;29;20055;-75
2022/08/25 02:03:52;;;;;;;4.68;2.83;;;;;;;;;;4953164;29;20031;-74
2022/08/25 02:06:23;;;;;;;4.65;2.85;;;;;;;;;;4953374;29;20027;-73
2022/08/25 02:08:56;;;;;;;5.80;3.08;;;;;;;;;;4953399;29;20370;-74
2022/08/25 02:11:23;;;;;;;5.68;3.45;;;;;;;;;;4952951;29;20027;-74
2022/08/25 02:13:50;;;;;;;6.80;3.00;;;;;;;;;;4952825;29;20110;-73
2022/08/25 02:16:21;;;;;;;5.45;2.92;;;;;;;;;;4953071;29;20035;-74
2022/08/25 02:18:47;;;;;;;6.80;3.75;;;;;;;;;;4953069;29;20041;-73
2022/08/25 02:21:14;;;;;;;8.25;4.32;;;;;;;;;;4953102;29;20027;-74
2022/08/25 02:23:41;;;;;;;5.57;3.90;;;;;;;;;;4953287;29;20043;-74
2022/08/25 02:26:07;;;;;;;4.93;3.90;;;;;;;;;;4936219;29;20378;-74
2022/08/25 02:28:33;;;;;;;7.70;4.30;;;;;;;;;;4953302;29;20063;-74
2022/08/25 02:30:59;;;;;;;7.60;4.05;;;;;;;;;;4953774;28;20426;-74
2022/08/25 02:33:25;;;;;;;6.55;3.88;;;;;;;;;;4956668;29;20027;-74
2022/08/25 02:35:51;;;;;;;8.48;4.28;;;;;;;;;;4956268;29;20030;-74
2022/08/25 02:38:17;;;;;;;6.95;4.22;;;;;;;;;;4956701;29;20031;-74
2022/08/25 02:40:43;;;;;;;7.70;4.28;;;;;;;;;;4956702;29;20035;-74
2022/08/25 02:43:09;;;;;;;7.22;4.47;;;;;;;;;;4956547;29;20035;-74
2022/08/25 02:45:35;;;;;;;7.32;4.15;;;;;;;;;;4956477;29;20046;-73
2022/08/25 02:48:02;;;;;;;9.27;5.30;;;;;;;;;;4956442;29;20122;-74
2022/08/25 02:50:28;;;;;;;13.20;4.22;;;;;;;;;;4956394;29;20030;-74
2022/08/25 02:52:54;;;;;;;8.45;4.65;;;;;;;;;;4956315;29;20394;-73
2022/08/25 02:55:20;;;;;;;8.02;4.60;;;;;;;;;;4956400;29;20023;-74
2022/08/25 02:57:47;;;;;;;6.60;4.07;;;;;;;;;;4956281;29;20117;-74
2022/08/25 03:00:15;;;;;;;10.02;4.97;;;;;;;;;;4956436;29;20094;-74
2022/08/25 03:02:42;;;;;;;7.07;4.07;;;;;;;;;;4956158;29;20038;-75
2022/08/25 03:05:10;;;;;;;6.57;4.50;;;;;;;;;;4955615;29;20496;-74
2022/08/25 03:07:37;;;;;;;7.05;4.43;;;;;;;;;;4955551;29;20046;-74
2022/08/25 03:10:13;;;;;;;6.53;4.50;;;;;;;;;;4955846;29;20027;-73
2022/08/25 03:12:40;;;;;;;7.72;4.18;;;;;;;;;;4955515;29;20046;-74
2022/08/25 03:15:08;;;;;;;6.78;4.30;;;;;;;;;;4955959;29;20030;-74
2022/08/25 03:17:34;;;;;;;7.63;4.05;;;;;;;;;;4955860;29;20043;-74
2022/08/25 03:20:00;;;;;;;6.75;4.10;;;;;;;;;;4955267;29;20031;-72
2022/08/25 03:22:26;;;;;;;6.68;3.90;;;;;;;;;;4955222;29;20030;-74
2022/08/25 03:26:52;;;;;;;5.68;4.00;;;;;;;;;;4955624;29;20034;-74
2022/08/25 03:27:37;;;;;;;6.38;3.78;;;;;;;;;;4955566;29;20616;-74
2022/08/25 03:30:04;;;;;;;6.45;4.00;;;;;;;;;;4955809;29;20446;-74
2022/08/25 03:32:30;;;;;;;6.78;4.40;;;;;;;;;;4955496;29;20062;-74
2022/08/25 03:34:56;;;;;;;6.10;4.30;;;;;;;;;;4955121;28;20051;-74
2022/08/25 03:37:22;;;;;;;5.28;3.80;;;;;;;;;;4955210;29;20043;-74
2022/08/25 03:39:48;;;;;;;5.63;3.85;;;;;;;;;;4955505;29;20463;-74
2022/08/25 03:42:14;;;;;;;6.05;3.92;;;;;;;;;;4954934;28;20043;-74
2022/08/25 03:44:39;;;;;;;6.13;3.80;;;;;;;;;;4954912;28;20364;-74
2022/08/25 03:47:05;;;;;;;5.57;4.10;;;;;;;;;;4954912;29;20394;-74
2022/08/25 03:49:31;;;;;;;5.97;4.25;;;;;;;;;;4955113;29;20023;-74
2022/08/25 03:51:58;;;;;;;5.47;4.28;;;;;;;;;;4955210;29;20506;-74
2022/08/25 03:54:24;;;;;;;6.05;3.55;;;;;;;;;;4954980;28;20027;-74
2022/08/25 03:56:51;;;;;;;8.27;4.30;;;;;;;;;;4954812;29;20513;-73
2022/08/25 03:59:17;;;;;;;8.27;4.30;;;;;;;;;;4954457;29;20392;-74
2022/08/25 04:01:45;;;;;;;7.40;4.70;;;;;;;;;;4954973;29;20039;-74
2022/08/25 04:04:13;;;;;;;7.57;4.95;;;;;;;;;;4955101;28;20067;-74
2022/08/25 04:06:40;;;;;;;8.57;4.75;;;;;;;;;;4955265;29;20031;-73
2022/08/25 04:09:07;;;;;;;7.70;4.32;;;;;;;;;;4954913;29;20447;-72
2022/08/25 04:11:32;;;;;;;6.55;4.45;;;;;;;;;;4954170;29;20416;-74
2022/08/25 04:14:00;;;;;;;7.50;4.60;;;;;;;;;;4954568;29;20069;-74
2022/08/25 04:16:30;;;;;;;6.18;4.80;;;;;;;;;;4954405;29;20071;-73
2022/08/25 04:18:57;;;;;;;6.97;4.20;;;;;;;;;;4954282;29;20076;-73
2022/08/25 04:21:24;;;;;;;5.47;4.20;;;;;;;;;;4954050;28;20024;-74
2022/08/25 04:23:52;;;;;;;5.85;4.43;;;;;;;;;;4954227;28;20031;-73
2022/08/25 04:26:19;;;;;;;7.13;4.55;;;;;;;;;;4948598;29;20084;-74
2022/08/25 04:28:46;;;;;;;7.60;4.40;;;;;;;;;;4952613;29;20424;-74
2022/08/25 04:31:14;;;;;;;6.55;4.55;;;;;;;;;;4945451;29;20028;-74
2022/08/25 04:33:40;;;;;;;11.00;4.97;;;;;;;;;;4936448;29;20043;-73
2022/08/25 04:36:08;;;;;;;8.55;4.75;;;;;;;;;;4934820;29;20032;-74
2022/08/25 04:38:34;;;;;;;7.43;5.15;;;;;;;;;;4936419;29;20042;-74
2022/08/25 04:41:02;;;;;;;7.43;5.32;;;;;;;;;;4954161;29;20102;-73
2022/08/25 04:43:30;;;;;;;9.35;5.28;;;;;;;;;;4953345;29;20047;-74
2022/08/25 04:45:56;;;;;;;6.25;4.60;;;;;;;;;;4955175;29;20032;-75
2022/08/25 04:48:22;;;;;;;5.88;3.78;;;;;;;;;;4955200;29;20071;-74
2022/08/25 04:50:48;;;;;;;6.35;4.47;;;;;;;;;;4955256;29;20435;-74
2022/08/25 04:53:15;;;;;;;13.38;4.85;;;;;;;;;;4954998;28;20106;-75
2022/08/25 04:55:42;;;;;;;6.35;4.53;;;;;;;;;;4954977;29;20034;-73
2022/08/25 04:58:08;;;;;;;5.20;3.95;;;;;;;;;;4954894;29;20134;-74
2022/08/25 05:00:36;;;;;;;6.90;4.82;;;;;;;;;;4954556;29;20046;-73
2022/08/25 05:03:03;;;;;;;6.35;3.90;;;;;;;;;;4954487;28;20035;-75
2022/08/25 05:05:29;;;;;;;12.35;4.82;;;;;;;;;;4954371;29;20431;-74
2022/08/25 05:07:56;;;;;;;16.95;5.45;;;;;;;;;;4954353;29;20043;-74
2022/08/25 05:10:21;;;;;;;16.33;5.50;;;;;;;;;;4954602;29;20035;-74
2022/08/25 05:12:48;;;;;;;28.67;6.07;;;;;;;;;;4954707;28;20141;-74
2022/08/25 05:17:58;;;;;;;19.42;5.30;;;;;;;;;;4954072;29;20094;-75
2022/08/25 05:20:25;;;;;;;22.08;5.30;;;;;;;;;;4954385;29;20031;-74
2022/08/25 05:22:51;;;;;;;27.70;6.07;;;;;;;;;;4954558;28;20123;-74
2022/08/25 05:25:17;;;;;;;32.17;6.65;;;;;;;;;;4954288;29;20070;-77
2022/08/25 05:27:43;;;;;;;37.00;6.70;;;;;;;;;;4954382;29;20084;-76
2022/08/25 05:30:10;;;;;;;13.20;4.40;;;;;;;;;;4954687;29;20062;-76
2022/08/25 05:32:37;;;;;;;8.70;3.50;;;;;;;;;;4954709;29;20035;-75
2022/08/25 05:35:04;;;;;;;8.35;3.30;;;;;;;;;;4954696;28;20323;-78
2022/08/25 05:37:31;;;;;;;7.57;3.10;;;;;;;;;;4954453;29;20039;-77
2022/08/25 05:39:57;;;;;;;15.35;4.35;;;;;;;;;;4941671;29;20031;-79
2022/08/25 05:42:23;;;;;;;31.40;5.88;;;;;;;;;;4935291;29;20031;-76
2022/08/25 05:44:49;;;;;;;17.38;4.75;;;;;;;;;;4935194;29;20037;-78
2022/08/25 05:47:15;;;;;;;25.75;4.72;;;;;;;;;;4917975;29;20352;-78
2022/08/25 05:49:41;;;;;;;15.40;5.03;;;;;;;;;;4918173;29;20111;-76
2022/08/25 05:52:07;;;;;;;14.20;4.18;;;;;;;;;;4937254;29;20039;-77
2022/08/25 05:54:33;;;;;;;7.85;3.95;;;;;;;;;;4954331;28;20023;-78
2022/08/25 05:56:59;;;;;;;8.65;3.95;;;;;;;;;;4954406;29;20043;-81
2022/08/25 05:59:25;;;;;;;6.70;3.53;;;;;;;;;;4946769;29;20127;-79
2022/08/25 06:04:35;;;;;;;8.18;3.20;;;;;;;;;;4954334;28;20040;-76
2022/08/25 06:07:01;;;;;;;16.35;4.82;;;;;;;;;;4958286;28;20083;-76
2022/08/25 06:09:27;;;;;;;9.57;3.80;;;;;;;;;;4957989;29;20070;-78
2022/08/25 06:11:53;;;;;;;11.45;5.25;;;;;;;;;;4957640;28;20020;-78
2022/08/25 06:14:19;;;;;;;7.70;4.25;;;;;;;;;;4955699;28;20054;-78
2022/08/25 06:16:47;;;;;;;8.52;4.57;;;;;;;;;;4956760;29;20114;-76
2022/08/25 06:19:13;;;;;;;8.23;4.65;;;;;;;;;;4956775;29;20083;-76
2022/08/25 06:21:39;;;;;;;8.70;3.92;;;;;;;;;;4956993;29;20023;-76
2022/08/25 06:24:06;;;;;;;6.00;4.40;;;;;;;;;;4956932;28;20438;-76
2022/08/25 06:26:33;;;;;;;7.28;3.42;;;;;;;;;;4956961;29;20034;-75
2022/08/25 06:28:59;;;;;;;9.55;3.97;;;;;;;;;;4956797;29;20101;-76
2022/08/25 06:31:25;;;;;;;14.50;4.57;;;;;;;;;;4956989;29;20501;-77
2022/08/25 06:33:51;;;;;;;13.00;4.65;;;;;;;;;;4958009;28;20039;-76
2022/08/25 06:36:18;;;;;;;10.27;4.72;;;;;;;;;;4973007;28;20394;-76
2022/08/25 06:38:45;;;;;;;9.50;4.20;;;;;;;;;;4957145;28;20031;-77
2022/08/25 06:41:11;;;;;;;7.15;4.43;;;;;;;;;;4956634;29;20085;-78
2022/08/25 06:43:39;;;;;;;8.63;4.45;;;;;;;;;;4956604;28;20035;-79
2022/08/25 06:46:13;;;;;;;7.85;3.78;;;;;;;;;;4956037;29;20027;-78
2022/08/25 06:48:40;;;;;;;6.55;3.60;;;;;;;;;;4956638;29;20085;-76
2022/08/25 06:51:11;;;;;;;6.82;3.28;;;;;;;;;;4969295;28;20168;-76
2022/08/25 06:53:37;;;;;;;6.88;2.92;;;;;;;;;;4975800;28;20486;-76
2022/08/25 06:56:04;;;;;;;4.30;2.78;;;;;;;;;;4975899;28;20331;-76
2022/08/25 06:58:32;;;;;;;7.35;3.45;;;;;;;;;;4958654;28;20074;-78
2022/08/25 07:01:12;;;;;;;7.50;3.40;;;;;;;;;;4956592;29;20110;-77
2022/08/25 07:03:38;;;;;;;5.78;3.40;;;;;;;;;;4956574;28;20031;-78
2022/08/25 07:06:04;;;;;;;3.58;2.85;;;;;;;;;;4956777;29;20039;-77
2022/08/25 07:08:30;;;;;;;6.68;3.15;;;;;;;;;;4956822;29;20032;-76
2022/08/25 07:10:57;;;;;;;3.65;2.53;;;;;;;;;;4956183;29;20030;-76
2022/08/25 07:13:23;;;;;;;9.52;2.80;;;;;;;;;;4938509;29;20039;-78
2022/08/25 07:15:53;;;;;;;5.03;2.38;;;;;;;;;;4956585;29;20028;-78
2022/08/25 07:18:19;;;;;;;4.65;2.63;;;;;;;;;;4955873;28;20407;-78
2022/08/25 07:20:45;;;;;;;6.60;3.50;;;;;;;;;;4956634;29;20020;-77
2022/08/25 07:23:11;;;;;;;4.82;2.88;;;;;;;;;;4955732;29;20536;-77
2022/08/25 07:25:37;;;;;;;4.85;3.22;;;;;;;;;;4938436;29;20023;-75
2022/08/25 07:28:03;;;;;;;7.15;3.40;;;;;;;;;;4955807;29;20122;-77
2022/08/25 07:30:30;;;;;;;5.88;2.92;;;;;;;;;;4956282;29;20032;-76
2022/08/25 07:32:56;;;;;;;5.90;2.78;;;;;;;;;;4956164;28;20039;-77
2022/08/25 07:35:26;;;;;;;5.78;2.75;;;;;;;;;;4951355;28;20110;-76
2022/08/25 07:37:57;;;;;;;4.28;2.47;;;;;;;;;;4949374;28;20054;-77
2022/08/25 07:40:26;;;;;;;8.75;3.30;;;;;;;;;;4956772;29;20035;-77
2022/08/25 07:42:56;;;;;;;6.90;2.95;;;;;;;;;;4955735;29;20098;-77
2022/08/25 07:45:29;;;;;;;6.00;3.08;;;;;;;;;;4938724;29;20114;-78
2022/08/25 07:47:59;;;;;;;;;;;;;;;;;;4955764;29;20097;-78
2022/08/25 07:50:25;;;;;;;8.23;2.90;;;;;;;;;;4955529;29;19922;-77
2022/08/25 07:52:51;;;;;;;8.82;3.38;;;;;;;;;;4955840;29;20258;-77
2022/08/25 07:55:17;;;;;;;7.07;2.88;;;;;;;;;;4954867;28;20102;-75
2022/08/25 07:57:43;;;;;;;10.00;3.20;;;;;;;;;;4953262;29;20363;-77
2022/08/25 08:00:13;;;;;;;8.43;3.45;;;;;;;;;;4947394;28;20050;-78
2022/08/25 08:02:40;;;;;;;6.75;3.25;;;;;;;;;;4955269;29;20210;-75
2022/08/25 08:05:06;;;;;;;5.78;3.13;;;;;;;;;;4938285;29;20038;-78
2022/08/25 08:07:32;;;;;;;5.93;2.75;;;;;;;;;;4955479;29;20430;-77
2022/08/25 08:09:58;;;;;;;7.90;2.70;;;;;;;;;;4955194;29;20047;-76
2022/08/25 08:12:25;;;;;;;6.93;2.90;;;;;;;;;;4955148;29;20031;-76
2022/08/25 08:14:52;;;;;;;10.85;3.47;;;;;;;;;;4955294;28;20110;-77
2022/08/25 08:17:19;;;;;;;8.68;2.90;;;;;;;;;;4952813;29;20319;-76
2022/08/25 08:19:45;;;;;;;5.07;2.63;;;;;;;;;;4935306;29;20038;-78
2022/08/25 08:22:14;;;;;;;9.82;6.90;;;;;;;;;;4934832;29;20032;-77
2022/08/25 08:24:43;;;;;;;8.35;3.67;;;;;;;;;;4950265;29;20394;-77
2022/08/25 08:27:11;;;;;;;4.03;2.72;;;;;;;;;;4953447;29;20042;-76
2022/08/25 08:29:39;;;;;;;7.20;2.92;;;;;;;;;;4953458;28;20035;-77
2022/08/25 08:32:08;;;;;;;6.60;2.90;;;;;;;;;;4953489;28;20031;-77
2022/08/25 08:34:34;;;;;;;4.35;3.00;;;;;;;;;;4954475;29;20522;-77
2022/08/25 08:37:01;;;;;;;4.03;2.88;;;;;;;;;;4954430;29;20118;-78
2022/08/25 08:39:28;;;;;;;4.28;2.70;;;;;;;;;;4954579;29;20471;-79
2022/08/25 08:42:20;;;;;;;6.63;2.88;;;;;;;;;;4955045;29;20047;-80
2022/08/25 08:45:19;;;;;;;4.75;2.97;;;;;;;;;;4937861;29;20150;-77
2022/08/25 08:48:21;;;;;;;4.70;2.63;;;;;;;;;;4954853;29;20031;-76
2022/08/25 08:50:59;;;;;;;6.85;3.30;;;;;;;;;;4918553;29;20452;-78
2022/08/25 08:53:37;;;;;;;6.97;3.15;;;;;;;;;;4937581;29;20109;-77
2022/08/25 08:56:10;;;;;;;6.55;3.15;;;;;;;;;;4954271;29;20493;-77
2022/08/25 08:59:24;;;;;;;6.03;2.88;;;;;;;;;;4954287;29;20047;-78
2022/08/25 09:01:59;;;;;;;5.22;3.33;;;;;;;;;;4893850;29;20052;-77
2022/08/25 09:04:45;;;;;;;5.18;3.17;;;;;;;;;;4942573;29;20175;-77
2022/08/25 09:07:26;;;;;;;4.95;2.80;;;;;;;;;;4954497;29;20086;-77
2022/08/25 09:09:52;;;;;;;5.60;2.88;;;;;;;;;;4954507;29;20054;-76
2022/08/25 09:12:41;;;;;;;6.07;3.13;;;;;;;;;;4954585;29;20497;-79
2022/08/25 09:15:17;;;;;;;5.20;2.78;;;;;;;;;;4954173;28;20035;-79
2022/08/25 09:18:05;;;;;;;9.18;3.13;;;;;;;;;;4953980;29;20043;-78
2022/08/25 09:20:33;;;;;;;9.93;3.28;;;;;;;;;;4936758;29;20046;-77
2022/08/25 09:23:33;;;;;;;5.88;2.90;;;;;;;;;;4954496;28;20114;-78
2022/08/25 09:26:26;;;;;;;7.30;3.40;;;;;;;;;;4937438;29;20062;-78
2022/08/25 09:29:01;;;;;;;6.75;2.80;;;;;;;;;;4952975;29;20502;-77
2022/08/25 09:31:34;;;;;;;5.25;2.83;;;;;;;;;;4953563;29;20046;-78
2022/08/25 09:34:03;;;;;;;11.38;3.80;;;;;;;;;;4953646;29;20101;-77
2022/08/25 09:36:29;;;;;;;8.27;3.22;;;;;;;;;;4954102;29;20023;-77
2022/08/25 09:38:55;;;;;;;5.75;2.83;;;;;;;;;;4954584;29;20487;-76
2022/08/25 09:41:44;;;;;;;5.53;2.80;;;;;;;;;;4936584;29;20058;-78
2022/08/25 09:44:32;;;;;;;6.22;2.92;;;;;;;;;;4934871;29;20474;-76
2022/08/25 09:47:26;;;;;;;4.93;3.13;;;;;;;;;;4934775;29;20032;-76
2022/08/25 09:50:02;;;;;;;3.90;2.70;;;;;;;;;;4934735;29;20119;-76
2022/08/25 09:52:28;;;;;;;4.60;3.00;;;;;;;;;;4917624;29;20044;-76
2022/08/25 09:54:55;;;;;;;10.55;3.92;;;;;;;;;;4922427;29;20031;-76
2022/08/25 09:57:43;;;;;;;7.85;3.88;;;;;;;;;;4935414;29;20095;-78
2022/08/25 10:00:22;;;;;;;5.55;3.28;;;;;;;;;;4934614;29;20483;-77
2022/08/25 10:03:09;;;;;;;5.10;3.60;;;;;;;;;;4934381;29;20300;-76
2022/08/25 10:05:56;;;;;;;6.25;3.13;;;;;;;;;;4932273;29;20050;-77
2022/08/25 10:08:26;;;;;;;9.82;4.30;;;;;;;;;;4923968;29;20087;-77
2022/08/25 10:10:56;;;;;;;11.32;4.43;;;;;;;;;;4923552;29;20064;-76
2022/08/25 10:13:33;;;;;;;10.40;4.80;;;;;;;;;;4921458;29;20050;-77
2022/08/25 10:16:22;;;;;;;8.40;3.15;;;;;;;;;;4933931;29;20043;-76
2022/08/25 10:19:06;;;;;;;12.25;4.53;;;;;;;;;;4934054;29;20071;-76
2022/08/25 10:21:33;;;;;;;10.90;4.00;;;;;;;;;;4933728;29;20031;-76
2022/08/25 10:24:01;;;;;;;9.38;3.60;;;;;;;;;;4934077;29;20038;-77
2022/08/25 10:26:46;;;;;;;9.90;4.70;;;;;;;;;;4933956;29;20040;-77
2022/08/25 10:29:48;;;;;;;9.00;5.22;;;;;;;;;;4918644;29;20110;-77
2022/08/25 10:32:23;;;;;;;7.13;3.92;;;;;;;;;;4923718;29;20036;-78
2022/08/25 10:34:54;;;;;;;5.85;4.50;;;;;;;;;;4898281;29;20725;-76
2022/08/25 10:37:53;;;;;;;8.10;5.93;;;;;;;;;;4934206;29;20452;-78
2022/08/25 10:40:31;;;;;;;9.23;5.07;;;;;;;;;;4934205;29;20122;-76
2022/08/25 10:43:12;;;;;;;8.57;5.53;;;;;;;;;;4934177;29;20369;-76
2022/08/25 10:46:05;;;;;;;11.27;5.82;;;;;;;;;;4933460;29;20042;-76
2022/08/25 10:48:43;;;;;;;9.60;5.57;;;;;;;;;;4934266;29;20032;-75
2022/08/25 10:51:45;;;;;;;7.60;5.57;;;;;;;;;;4933961;29;20039;-77
2022/08/25 10:54:34;;;;;;;6.75;4.57;;;;;;;;;;4912088;29;20116;-76
2022/08/25 10:57:32;;;;;;;8.38;4.95;;;;;;;;;;4937256;29;20102;-76
2022/08/25 11:00:03;;;;;;;7.22;5.13;;;;;;;;;;4935525;29;20071;-77
2022/08/25 11:02:53;;;;;;;7.55;5.03;;;;;;;;;;4920005;29;20474;-76
2022/08/25 11:05:40;;;;;;;8.63;5.20;;;;;;;;;;4937172;29;20040;-77
2022/08/25 11:08:15;;;;;;;7.93;5.15;;;;;;;;;;4937251;29;20042;-77
2022/08/25 11:10:47;;;;;;;7.72;5.10;;;;;;;;;;4936600;29;20032;-77
2022/08/25 11:13:21;;;;;;;10.17;5.00;;;;;;;;;;4937266;29;20106;-77
2022/08/25 11:16:19;;;;;;;8.88;4.68;;;;;;;;;;4937218;29;20027;-77
2022/08/25 11:18:54;;;;;;;6.88;4.63;;;;;;;;;;4916190;29;20492;-77
2022/08/25 11:21:30;;;;;;;6.63;4.50;;;;;;;;;;4935903;29;20027;-76
2022/08/25 11:24:18;;;;;;;9.02;4.38;;;;;;;;;;4935076;29;20403;-77
2022/08/25 11:26:52;;;;;;;8.88;4.05;;;;;;;;;;4935956;29;20031;-76
2022/08/25 11:29:20;;;;;;;10.50;4.55;;;;;;;;;;4935616;29;20593;-77
2022/08/25 11:31:51;;;;;;;13.18;4.60;;;;;;;;;;4937355;29;20383;-77
2022/08/25 11:34:17;;;;;;;8.57;3.95;;;;;;;;;;4937112;29;20031;-78
2022/08/25 11:37:08;;;;;;;8.80;4.13;;;;;;;;;;4937059;29;20028;-78
2022/08/25 11:39:39;;;;;;;7.00;4.00;;;;;;;;;;4937279;29;20391;-77
2022/08/25 11:42:14;;;;;;;9.82;4.28;;;;;;;;;;4935813;29;20027;-77
2022/08/25 11:44:46;;;;;;;11.40;4.40;;;;;;;;;;4937258;29;20032;-76
2022/08/25 11:47:30;;;;;;;7.20;3.85;;;;;;;;;;4937363;29;20110;-77
2022/08/25 11:50:22;;;;;;;12.13;4.40;;;;;;;;;;4937433;29;20174;-75
2022/08/25 11:52:55;;;;;;;12.48;4.07;;;;;;;;;;4937169;29;20168;-77
2022/08/25 11:55:28;;;;;;;;;;;;;;;;;;4937390;29;20039;-78
2022/08/25 11:58:32;;;;;;;9.20;4.20;;;;;;;;;;4942392;28;20065;-77
2022/08/25 12:01:01;;;;;;;9.85;4.88;;;;;;;;;;4975265;28;20600;-78
2022/08/25 12:03:36;;;;;;;10.43;4.38;;;;;;;;;;4957499;28;20034;-77
2022/08/25 12:06:26;;;;;;;9.50;4.15;;;;;;;;;;4974821;28;20367;-76
2022/08/25 12:09:03;;;;;;;6.60;4.65;;;;;;;;;;4975130;28;20037;-76
2022/08/25 12:12:01;;;;;;;9.13;4.55;;;;;;;;;;4974795;28;20093;-77
2022/08/25 12:14:27;;;;;;;8.95;4.53;;;;;;;;;;4971039;28;20125;-77
2022/08/25 12:16:53;;;;;;;10.45;6.05;;;;;;;;;;4974855;28;20109;-78
2022/08/25 12:19:34;;;;;;;6.95;3.80;;;;;;;;;;4975074;28;20126;-77
2022/08/25 12:22:00;;;;;;;5.63;3.25;;;;;;;;;;4974998;28;20394;-77
2022/08/25 12:24:44;;;;;;;7.18;3.72;;;;;;;;;;4975253;28;20026;-78
2022/08/25 12:27:44;;;;;;;9.10;3.72;;;;;;;;;;4957316;28;20045;-78
2022/08/25 12:30:37;;;;;;;10.85;3.85;;;;;;;;;;4974432;28;20038;-77
2022/08/25 12:33:06;;;;;;;5.00;3.45;;;;;;;;;;4974833;28;20390;-77
2022/08/25 12:35:37;;;;;;;7.60;3.65;;;;;;;;;;4974654;28;20027;-77
2022/08/25 12:38:26;;;;;;;5.25;3.30;;;;;;;;;;4974372;28;20043;-77
2022/08/25 12:41:07;;;;;;;10.25;3.95;;;;;;;;;;4971049;28;20402;-76
2022/08/25 12:43:42;;;;;;;9.48;3.88;;;;;;;;;;4953682;28;20114;-75
2022/08/25 12:46:20;;;;;;;6.53;3.42;;;;;;;;;;4954373;29;20034;-77
2022/08/25 12:48:54;;;;;;;5.35;3.20;;;;;;;;;;4954210;29;20028;-76
2022/08/25 12:51:22;;;;;;;5.88;3.15;;;;;;;;;;4953617;29;20118;-76
2022/08/25 12:54:14;;;;;;;8.65;3.58;;;;;;;;;;4949655;29;20023;-75
2022/08/25 12:56:51;;;;;;;8.50;3.30;;;;;;;;;;4954205;29;20557;-75
2022/08/25 12:59:35;;;;;;;6.13;3.60;;;;;;;;;;4954028;29;20047;-77
2022/08/25 13:02:39;;;;;;;8.05;3.75;;;;;;;;;;4954467;29;20078;-77
2022/08/25 13:05:17;;;;;;;5.97;3.60;;;;;;;;;;4940780;29;20043;-79
2022/08/25 13:08:02;;;;;;;7.40;3.17;;;;;;;;;;4954621;29;20065;-78
2022/08/25 13:11:03;;;;;;;6.03;3.42;;;;;;;;;;4954585;29;20058;-80
2022/08/25 13:13:38;;;;;;;6.90;3.65;;;;;;;;;;4954192;28;20043;-79
2022/08/25 13:16:19;;;;;;;5.60;3.67;;;;;;;;;;4953739;28;20066;-78
2022/08/25 13:18:45;;;;;;;7.15;3.78;;;;;;;;;;4954331;29;20447;-77
2022/08/25 13:21:18;;;;;;;10.40;3.55;;;;;;;;;;4936764;29;20054;-79
2022/08/25 13:23:50;;;;;;;8.32;3.95;;;;;;;;;;4954079;28;20031;-76
2022/08/25 13:26:27;;;;;;;10.40;4.40;;;;;;;;;;4953492;29;20054;-77
2022/08/25 13:28:58;;;;;;;9.95;4.55;;;;;;;;;;4954050;29;20069;-78
2022/08/25 13:31:27;;;;;;;7.90;4.90;;;;;;;;;;4952721;29;20478;-78
2022/08/25 13:34:01;;;;;;;6.50;4.05;;;;;;;;;;4954604;29;20466;-77
2022/08/25 13:39:18;;;;;;;7.15;4.00;;;;;;;;;;4954476;29;20031;-76
2022/08/25 13:41:50;;;;;;;8.30;3.95;;;;;;;;;;4954632;29;20038;-78
2022/08/25 13:44:18;;;;;;;10.38;3.65;;;;;;;;;;4954528;29;20095;-79
2022/08/25 13:46:46;;;;;;;6.30;4.07;;;;;;;;;;4937353;29;20031;-80
2022/08/25 13:49:23;;;;;;;9.85;4.10;;;;;;;;;;4954198;29;20038;-80
2022/08/25 13:51:54;;;;;;;8.45;4.05;;;;;;;;;;4954437;29;20380;-79
2022/08/25 13:54:59;;;;;;;10.40;4.15;;;;;;;;;;4954061;28;20090;-76
2022/08/25 13:57:28;;;;;;;7.22;3.70;;;;;;;;;;4914035;29;20469;-80
2022/08/25 13:59:59;;;;;;;14.55;5.50;;;;;;;;;;4913552;29;20088;-80
2022/08/25 14:02:43;;;;;;;12.23;4.65;;;;;;;;;;4898176;29;20481;-78
2022/08/25 14:05:09;;;;;;;;;;;;;;;;;;4914459;29;20395;-78
2022/08/25 14:07:35;;;;;;;10.60;4.53;;;;;;;;;;4913842;29;19915;-76
2022/08/25 14:10:09;;;;;;;9.90;4.50;;;;;;;;;;4914378;29;20516;-78
2022/08/25 14:12:34;;;;;;;;;;;;;;;;;;4914282;29;20122;-78
2022/08/25 14:15:09;;;;;;;8.75;3.78;;;;;;;;;;4914115;29;19915;-78
2022/08/25 14:17:37;;;;;;;5.97;3.55;;;;;;;;;;4913963;29;20052;-78
2022/08/25 14:20:05;;;;;;;7.43;3.63;;;;;;;;;;4914124;29;20028;-78
2022/08/25 14:22:31;;;;;;;9.18;3.83;;;;;;;;;;4913980;29;20051;-79
2022/08/25 14:24:57;;;;;;;9.13;3.72;;;;;;;;;;4882454;29;20028;-78
2022/08/25 14:27:23;;;;;;;9.63;3.50;;;;;;;;;;4921312;29;20036;-80
2022/08/25 14:29:49;;;;;;;5.43;3.42;;;;;;;;;;4940777;29;20019;-80
2022/08/25 14:32:16;;;;;;;7.20;3.58;;;;;;;;;;4957855;29;20035;-82
2022/08/25 14:34:42;;;;;;;5.82;3.50;;;;;;;;;;4957743;28;20525;-79
2022/08/25 14:37:17;;;;;;;6.55;4.20;;;;;;;;;;4957342;29;20538;-75
2022/08/25 14:39:43;;;;;;;9.82;3.95;;;;;;;;;;4956502;28;20031;-78
2022/08/25 14:42:10;;;;;;;6.10;3.90;;;;;;;;;;4957238;29;20426;-79
2022/08/25 14:44:36;;;;;;;12.02;4.53;;;;;;;;;;4940116;29;20542;-77
2022/08/25 14:47:05;;;;;;;9.38;4.43;;;;;;;;;;4957516;29;20105;-78
2022/08/25 14:49:36;;;;;;;8.82;4.20;;;;;;;;;;4940315;29;20398;-78
2022/08/25 14:52:27;;;;;;;11.02;4.75;;;;;;;;;;4957249;29;20032;-79
2022/08/25 14:54:55;;;;;;;9.45;3.88;;;;;;;;;;4956986;28;20067;-76
2022/08/25 14:57:22;;;;;;;10.77;4.78;;;;;;;;;;4957429;29;20379;-80
2022/08/25 14:59:48;;;;;;;7.72;4.22;;;;;;;;;;4957552;29;20129;-80
2022/08/25 15:02:19;;;;;;;6.10;3.90;;;;;;;;;;4957463;29;20114;-79
2022/08/25 15:04:51;;;;;;;8.05;4.20;;;;;;;;;;4957493;28;20035;-80
2022/08/25 15:10:03;;;;;;;9.05;4.28;;;;;;;;;;4956677;29;20039;-79
2022/08/25 15:12:30;;;;;;;6.45;3.53;;;;;;;;;;4956747;29;20109;-80
2022/08/25 15:14:57;;;;;;;7.25;3.80;;;;;;;;;;4939518;29;20364;-80
2022/08/25 15:17:23;;;;;;;9.57;3.65;;;;;;;;;;4957065;29;20173;-79
2022/08/25 15:19:48;;;;;;;9.20;3.60;;;;;;;;;;4956786;29;20495;-78
2022/08/25 15:22:14;;;;;;;6.30;3.50;;;;;;;;;;4956711;29;20030;-78